createdAt,value
2023-02-11T00:02:23.744Z,86.00
2023-02-11T00:04:50.555Z,86.13
2023-02-11T00:07:17.477Z,86.04
2023-02-11T00:09:44.245Z,86.26
2023-02-11T00:12:10.984Z,86.09
2023-02-11T00:14:37.829Z,86.21
2023-02-11T00:17:04.631Z,86.38
2023-02-11T00:19:31.490Z,86.56
2023-02-11T00:21:58.290Z,86.78
2023-02-11T00:24:25.117Z,86.77
2023-02-11T00:26:52.022Z,86.79
2023-02-11T00:29:18.855Z,86.77
2023-02-11T00:31:45.802Z,86.99
2023-02-11T00:34:12.628Z,87.10
2023-02-11T00:36:39.537Z,86.90
2023-02-11T00:39:07.752Z,86.92
2023-02-11T00:41:35.681Z,86.83
2023-02-11T00:44:02.693Z,87.08
2023-02-11T00:46:29.592Z,87.10
2023-02-11T00:48:58.033Z,86.95
2023-02-11T00:51:25.812Z,86.95
2023-02-11T00:53:52.681Z,87.06
2023-02-11T00:56:19.537Z,87.15
2023-02-11T00:58:46.385Z,87.39
2023-02-11T01:01:13.282Z,87.26
2023-02-11T01:03:40.489Z,87.39
2023-02-11T01:06:08.488Z,87.51
2023-02-11T01:08:37.982Z,87.79
2023-02-11T01:11:06.249Z,87.53
2023-02-11T01:13:33.803Z,87.58
2023-02-11T01:16:00.642Z,87.62
2023-02-11T01:18:27.459Z,87.90
2023-02-11T01:20:54.633Z,87.90
2023-02-11T01:23:23.446Z,87.86
2023-02-11T01:25:50.624Z,87.61
2023-02-11T01:28:18.416Z,87.43
2023-02-11T01:30:45.316Z,87.16
2023-02-11T01:33:12.129Z,87.26
2023-02-11T01:35:39.375Z,87.29
2023-02-11T01:38:09.537Z,87.51
2023-02-11T01:40:36.508Z,87.28
2023-02-11T01:43:03.464Z,87.14
2023-02-11T01:45:42.592Z,87.24
2023-02-11T01:48:11.524Z,87.01
2023-02-11T01:50:38.617Z,86.36
2023-02-11T01:53:24.288Z,85.81
2023-02-11T01:56:09.901Z,85.39
2023-02-11T01:58:36.931Z,85.25
2023-02-11T02:01:03.855Z,85.18
2023-02-11T02:03:30.787Z,84.99
2023-02-11T02:06:08.461Z,84.59
2023-02-11T02:08:47.985Z,84.13
2023-02-11T02:11:14.908Z,83.95
2023-02-11T02:13:41.940Z,84.14
2023-02-11T02:16:12.087Z,84.14
2023-02-11T02:18:45.427Z,83.93
2023-02-11T02:21:27.520Z,83.93
2023-02-11T02:24:04.240Z,83.45
2023-02-11T02:26:31.060Z,83.53
2023-02-11T02:29:16.356Z,83.56
2023-02-11T02:31:43.201Z,83.26
2023-02-11T02:34:13.157Z,83.10
2023-02-11T02:36:44.047Z,83.05
2023-02-11T02:39:12.388Z,82.73
2023-02-11T02:41:39.241Z,82.44
2023-02-11T02:44:06.094Z,82.32
2023-02-11T02:46:34.342Z,82.47
2023-02-11T02:49:01.463Z,82.65
2023-02-11T02:51:47.040Z,82.35
2023-02-11T02:54:32.243Z,82.20
2023-02-11T02:57:05.235Z,82.30
2023-02-11T02:59:32.043Z,82.42
2023-02-11T03:01:59.548Z,82.47
2023-02-11T03:04:35.673Z,81.95
2023-02-11T03:07:02.421Z,81.89
2023-02-11T03:09:32.072Z,81.70
2023-02-11T03:11:59.277Z,81.57
2023-02-11T03:14:26.951Z,81.64
2023-02-11T03:16:54.372Z,81.62
2023-02-11T03:19:22.005Z,81.26
2023-02-11T03:21:49.580Z,81.10
2023-02-11T03:24:17.624Z,81.30
2023-02-11T03:26:49.463Z,81.41
2023-02-11T03:29:19.310Z,81.23
2023-02-11T03:32:04.724Z,81.29
2023-02-11T03:34:42.905Z,81.29
2023-02-11T03:37:13.957Z,81.55
2023-02-11T03:39:46.629Z,82.25
2023-02-11T03:42:13.605Z,82.61
2023-02-11T03:44:41.610Z,83.27
2023-02-11T03:47:08.717Z,83.38
2023-02-11T03:49:35.809Z,83.62
2023-02-11T03:52:02.738Z,83.70
2023-02-11T03:54:29.973Z,83.78
2023-02-11T03:56:57.738Z,83.55
2023-02-11T03:59:24.659Z,83.59
2023-02-11T04:01:51.729Z,83.82
2023-02-11T04:04:18.723Z,84.28
2023-02-11T04:06:45.877Z,84.74
2023-02-11T04:09:12.729Z,84.60
2023-02-11T04:11:39.541Z,84.41
2023-02-11T04:14:07.574Z,84.15
2023-02-11T04:16:34.437Z,84.12
2023-02-11T04:19:01.890Z,84.47
2023-02-11T04:21:28.728Z,84.26
2023-02-11T04:23:55.561Z,84.74
2023-02-11T04:26:22.390Z,84.75
2023-02-11T04:28:49.246Z,84.76
2023-02-11T04:31:16.144Z,84.78
2023-02-11T04:33:43.078Z,85.13
2023-02-11T04:36:09.991Z,85.29
2023-02-11T04:38:36.843Z,85.46
2023-02-11T04:41:03.667Z,85.54
2023-02-11T04:43:30.574Z,86.00
2023-02-11T04:45:58.838Z,86.32
2023-02-11T04:48:25.895Z,85.79
2023-02-11T04:50:52.723Z,85.01
2023-02-11T04:53:19.593Z,84.49
2023-02-11T04:55:49.349Z,84.07
2023-02-11T04:58:16.819Z,84.09
2023-02-11T05:00:43.616Z,83.91
2023-02-11T05:03:10.523Z,83.75
2023-02-11T05:05:40.929Z,83.57
2023-02-11T05:08:07.978Z,83.29
2023-02-11T05:10:34.763Z,83.27
2023-02-11T05:13:01.567Z,83.36
2023-02-11T05:15:28.634Z,83.54
2023-02-11T05:17:55.496Z,83.36
2023-02-11T05:20:22.398Z,83.34
2023-02-11T05:22:49.274Z,83.23
2023-02-11T05:25:16.087Z,83.40
2023-02-11T05:27:44.098Z,83.69
2023-02-11T05:30:11.292Z,83.68
2023-02-11T05:32:38.463Z,83.87
2023-02-11T05:35:05.528Z,83.96
2023-02-11T05:37:32.314Z,83.83
2023-02-11T05:40:01.379Z,83.91
2023-02-11T05:42:30.775Z,84.12
2023-02-11T05:44:59.196Z,84.20
2023-02-11T05:47:26.266Z,84.37
2023-02-11T05:49:58.682Z,84.22
2023-02-11T05:52:25.490Z,84.03
2023-02-11T05:54:53.029Z,84.12
2023-02-11T05:57:19.932Z,84.35
2023-02-11T05:59:46.886Z,84.56
2023-02-11T06:02:13.752Z,84.64
2023-02-11T06:04:40.870Z,84.63
2023-02-11T06:07:07.700Z,84.42
2023-02-11T06:09:35.537Z,84.24
2023-02-11T06:12:02.657Z,84.29
2023-02-11T06:14:29.496Z,84.06
2023-02-11T06:16:56.256Z,84.18
2023-02-11T06:19:23.105Z,84.09
2023-02-11T06:21:49.977Z,84.27
2023-02-11T06:24:24.690Z,83.96
2023-02-11T06:27:04.744Z,83.55
2023-02-11T06:29:31.634Z,83.46
2023-02-11T06:31:58.616Z,83.25
2023-02-11T06:34:25.599Z,82.87
2023-02-11T06:36:52.402Z,82.93
2023-02-11T06:39:20.181Z,82.76
2023-02-11T06:41:47.290Z,82.79
2023-02-11T06:44:14.063Z,82.80
2023-02-11T06:46:46.383Z,82.60
2023-02-11T06:49:13.579Z,82.74
2023-02-11T06:51:40.530Z,82.36
2023-02-11T06:54:07.459Z,82.34
2023-02-11T06:56:34.532Z,81.90
2023-02-11T06:59:01.421Z,81.78
2023-02-11T07:01:29.096Z,81.61
2023-02-11T07:03:56.363Z,81.45
2023-02-11T07:06:25.093Z,81.14
2023-02-11T07:08:51.940Z,80.98
2023-02-11T07:11:20.273Z,80.69
2023-02-11T07:13:47.419Z,80.15
2023-02-11T07:16:15.568Z,80.22
2023-02-11T07:18:43.017Z,79.59
2023-02-11T07:21:11.748Z,79.42
2023-02-11T07:23:39.641Z,79.01
2023-02-11T07:26:30.479Z,79.40
2023-02-11T07:28:57.471Z,78.92
2023-02-11T07:31:25.437Z,78.39
2023-02-11T07:33:54.524Z,78.51
2023-02-11T07:36:21.661Z,78.09
2023-02-11T07:38:48.500Z,77.69
2023-02-11T07:41:16.376Z,77.58
2023-02-11T07:43:43.508Z,76.83
2023-02-11T07:46:11.491Z,76.61
2023-02-11T07:48:38.486Z,76.95
2023-02-11T07:51:09.614Z,76.91
2023-02-11T07:53:36.558Z,76.60
2023-02-11T07:56:04.208Z,75.82
2023-02-11T07:58:31.502Z,76.01
2023-02-11T08:01:05.471Z,75.53
2023-02-11T08:03:33.291Z,75.49
2023-02-11T08:06:03.632Z,74.12
2023-02-11T08:08:30.548Z,73.71
2023-02-11T08:10:57.340Z,73.17
2023-02-11T08:13:24.233Z,72.40
2023-02-11T08:15:51.271Z,72.86
2023-02-11T08:18:18.337Z,73.11
2023-02-11T08:20:45.177Z,72.75
2023-02-11T08:23:12.123Z,73.32
2023-02-11T08:25:38.963Z,73.37
2023-02-11T08:28:05.864Z,73.59
2023-02-11T08:30:32.740Z,73.89
2023-02-11T08:36:08.764Z,74.27
2023-02-11T08:38:35.731Z,74.91
2023-02-11T08:41:02.680Z,75.30
2023-02-11T08:46:15.719Z,75.71
2023-02-11T08:48:44.784Z,75.63
2023-02-11T08:51:20.165Z,74.73
2023-02-11T08:53:48.670Z,74.90
2023-02-11T08:56:15.870Z,75.36
2023-02-11T08:58:42.963Z,75.53
2023-02-11T09:01:12.523Z,76.11
2023-02-11T09:03:39.375Z,76.36
2023-02-11T09:06:07.115Z,76.20
2023-02-11T09:08:37.676Z,76.56
2023-02-11T09:11:05.494Z,77.17
2023-02-11T09:13:37.552Z,77.75
2023-02-11T09:16:04.990Z,78.02
2023-02-11T09:18:31.956Z,78.37
2023-02-11T09:21:05.542Z,78.47
2023-02-11T09:23:34.527Z,79.12
2023-02-11T09:26:14.490Z,79.39
2023-02-11T09:28:42.751Z,79.61
2023-02-11T09:31:10.403Z,78.94
2023-02-11T09:34:02.536Z,79.00
2023-02-11T09:36:30.256Z,79.01
2023-02-11T09:38:58.028Z,79.00
2023-02-11T09:44:56.279Z,79.26
2023-02-11T09:47:28.520Z,79.32
2023-02-11T09:49:59.442Z,79.53
2023-02-11T09:52:52.693Z,79.83
2023-02-11T09:55:23.901Z,79.89
2023-02-11T09:57:50.863Z,80.41
2023-02-11T10:00:21.035Z,80.47
2023-02-11T10:02:59.545Z,80.56
2023-02-11T10:05:35.534Z,80.47
2023-02-11T10:08:24.866Z,80.60
2023-02-11T10:11:03.935Z,80.59
2023-02-11T10:13:36.897Z,80.20
2023-02-11T10:16:06.414Z,80.55
2023-02-11T10:18:36.386Z,80.09
2023-02-11T10:21:06.868Z,79.29
2023-02-11T10:23:38.408Z,79.26
2023-02-11T10:26:10.693Z,79.60
2023-02-11T10:28:39.091Z,79.45
2023-02-11T10:31:07.673Z,79.03
2023-02-11T10:33:45.635Z,78.64
2023-02-11T10:36:18.516Z,78.76
2023-02-11T10:38:45.695Z,77.81
2023-02-11T10:41:25.669Z,77.89
2023-02-11T10:47:32.920Z,77.61
2023-02-11T10:50:03.817Z,77.47
2023-02-11T10:52:31.309Z,77.33
2023-02-11T10:55:00.242Z,76.70
2023-02-11T10:57:37.408Z,76.59
2023-02-11T11:00:37.175Z,75.76
2023-02-11T11:03:05.064Z,75.63
2023-02-11T11:05:36.351Z,75.85
2023-02-11T11:08:08.328Z,75.73
2023-02-11T11:10:46.180Z,74.97
2023-02-11T11:13:47.744Z,74.96
2023-02-11T11:16:22.141Z,75.22
2023-02-11T11:19:07.376Z,74.77
2023-02-11T11:27:25.089Z,74.96
2023-02-11T11:29:54.457Z,75.01
2023-02-11T11:32:23.132Z,75.08
2023-02-11T11:34:56.951Z,75.56
2023-02-11T11:37:26.442Z,75.60
2023-02-11T11:39:57.779Z,76.20
2023-02-11T11:42:51.559Z,75.90
2023-02-11T11:45:24.762Z,75.54
2023-02-11T11:48:26.056Z,75.43
2023-02-11T11:51:03.692Z,75.49
2023-02-11T11:53:48.697Z,75.69
2023-02-11T11:56:25.477Z,75.32
2023-02-11T11:58:53.573Z,75.68
2023-02-11T12:01:42.599Z,75.26
2023-02-11T12:04:17.963Z,74.79
2023-02-11T12:06:56.116Z,74.98
2023-02-11T12:09:27.268Z,74.94
2023-02-11T12:12:00.498Z,75.10
2023-02-11T12:14:39.080Z,75.34
2023-02-11T12:17:34.585Z,75.00
2023-02-11T12:20:01.456Z,74.94
2023-02-11T12:22:37.290Z,74.88
2023-02-11T12:25:17.070Z,75.10
2023-02-11T12:27:58.821Z,75.18
2023-02-11T12:30:31.658Z,75.15
2023-02-11T12:33:05.089Z,75.12
2023-02-11T12:35:58.512Z,75.14
2023-02-11T12:38:25.823Z,75.47
2023-02-11T12:41:19.168Z,75.71
2023-02-11T12:43:46.546Z,76.03
2023-02-11T12:46:25.121Z,76.16
2023-02-11T12:48:57.306Z,76.55
2023-02-11T12:51:32.121Z,76.96
2023-02-11T12:54:06.826Z,77.04
2023-02-11T12:56:34.226Z,76.75
2023-02-11T12:59:01.111Z,76.95
2023-02-11T13:01:29.896Z,77.00
2023-02-11T13:03:56.860Z,77.06
2023-02-11T13:06:30.848Z,77.09
2023-02-11T13:09:01.521Z,77.42
2023-02-11T13:11:29.821Z,77.54
2023-02-11T13:14:07.494Z,77.46
2023-02-11T13:16:44.417Z,77.55
2023-02-11T13:19:14.146Z,77.44
2023-02-11T13:21:53.145Z,77.53
2023-02-11T13:24:20.041Z,77.77
2023-02-11T13:27:05.832Z,77.76
2023-02-11T13:29:42.697Z,78.55
2023-02-11T13:32:13.290Z,79.31
2023-02-11T13:34:42.919Z,79.61
2023-02-11T13:37:19.235Z,81.73
2023-02-11T13:40:04.511Z,82.49
2023-02-11T13:42:31.644Z,82.97
2023-02-11T13:44:58.474Z,82.95
2023-02-11T13:47:25.234Z,83.03
2023-02-11T13:49:53.623Z,83.62
2023-02-11T13:52:24.884Z,83.97
2023-02-11T13:54:52.877Z,84.34
2023-02-11T13:57:19.717Z,84.51
2023-02-11T13:59:46.636Z,84.90
2023-02-11T14:02:47.647Z,85.18
2023-02-11T14:05:40.963Z,85.29
2023-02-11T14:08:26.481Z,85.53
2023-02-11T14:10:54.555Z,85.45
2023-02-11T14:13:25.845Z,85.73
2023-02-11T14:16:04.966Z,85.87
2023-02-11T14:18:37.996Z,86.01
2023-02-11T14:21:12.049Z,86.14
2023-02-11T14:23:39.611Z,86.33
2023-02-11T14:26:21.878Z,86.51
2023-02-11T14:28:49.627Z,87.36
2023-02-11T14:31:21.708Z,88.12
2023-02-11T14:33:58.189Z,88.73
2023-02-11T14:36:28.067Z,89.36
2023-02-11T14:39:08.072Z,89.38
2023-02-11T14:41:44.684Z,89.56
2023-02-11T14:44:14.556Z,89.88
2023-02-11T14:46:44.101Z,89.85
2023-02-11T14:49:13.846Z,89.71
2023-02-11T14:51:40.898Z,89.86
2023-02-11T14:54:22.821Z,89.81
2023-02-11T14:57:10.061Z,89.68
2023-02-11T14:59:36.901Z,89.68
2023-02-11T15:02:03.948Z,89.84
2023-02-11T15:04:36.244Z,89.80
2023-02-11T15:07:06.792Z,89.76
2023-02-11T15:09:34.706Z,89.80
2023-02-11T15:12:01.604Z,89.87
2023-02-11T15:14:29.424Z,89.67
2023-02-11T15:17:00.416Z,89.55
2023-02-11T15:19:34.279Z,89.63
2023-02-11T15:22:01.492Z,89.64
2023-02-11T15:24:32.001Z,89.73
2023-02-11T15:29:53.085Z,89.67
2023-02-11T15:32:22.044Z,89.62
2023-02-11T15:34:50.010Z,89.76
2023-02-11T15:37:24.658Z,89.76
2023-02-11T15:39:52.058Z,90.20
2023-02-11T15:42:21.976Z,90.37
2023-02-11T15:44:56.505Z,90.49
2023-02-11T15:47:24.679Z,90.86
2023-02-11T15:49:51.865Z,91.20
2023-02-11T15:52:23.080Z,91.34
2023-02-11T15:57:47.978Z,92.18
2023-02-11T16:00:18.987Z,92.39
2023-02-11T16:02:48.437Z,92.68
2023-02-11T16:05:44.720Z,92.69
2023-02-11T16:08:25.064Z,93.12
2023-02-11T16:10:58.823Z,93.28
2023-02-11T16:13:26.415Z,93.47
2023-02-11T16:15:54.800Z,93.32
2023-02-11T16:18:28.470Z,93.60
2023-02-11T16:24:22.352Z,93.92
2023-02-11T16:26:49.613Z,94.28
2023-02-11T16:29:17.676Z,94.39
2023-02-11T16:31:45.432Z,94.53
2023-02-11T16:34:17.127Z,94.76
2023-02-11T16:36:44.604Z,95.05
2023-02-11T16:39:13.276Z,95.33
2023-02-11T16:41:41.984Z,95.32
2023-02-11T16:44:36.134Z,95.63
2023-02-11T16:47:03.799Z,95.91
2023-02-11T16:49:31.945Z,96.13
2023-02-11T16:52:02.825Z,96.45
2023-02-11T16:54:30.681Z,96.72
2023-02-11T16:56:57.843Z,97.03
2023-02-11T16:59:25.515Z,97.36
2023-02-11T17:04:34.851Z,97.57
2023-02-11T17:07:01.813Z,97.64
2023-02-11T17:09:30.784Z,97.98
2023-02-11T17:11:58.845Z,97.98
2023-02-11T17:14:26.493Z,98.14
2023-02-11T17:16:53.543Z,98.35
2023-02-11T17:19:49.719Z,98.54
2023-02-11T17:22:30.984Z,98.39
2023-02-11T18:14:10.999Z,100.00
2023-02-11T18:16:44.234Z,100.00
2023-02-11T18:19:13.361Z,100.00
2023-02-11T18:21:40.305Z,100.00
2023-02-11T18:24:08.111Z,100.00
2023-02-11T18:26:35.168Z,100.00
2023-02-11T18:29:06.296Z,100.00
2023-02-11T18:31:35.513Z,100.00
2023-02-11T18:34:03.082Z,100.00
2023-02-11T18:39:14.644Z,100.00
2023-02-11T18:41:44.415Z,100.00
2023-02-11T18:44:14.695Z,100.00
2023-02-11T18:50:09.796Z,99.79
2023-02-11T18:52:38.626Z,99.74
2023-02-11T18:55:32.780Z,99.81
2023-02-11T18:58:07.641Z,99.95
2023-02-11T19:00:34.756Z,100.00
2023-02-11T19:03:02.191Z,99.86
2023-02-11T19:05:33.477Z,99.99
2023-02-11T19:08:01.505Z,100.00
2023-02-11T19:10:32.090Z,100.00
2023-02-11T19:13:00.101Z,100.00
2023-02-11T19:15:37.758Z,100.00
2023-02-11T19:18:07.024Z,100.00
2023-02-11T19:20:33.929Z,100.00
2023-02-11T19:23:01.049Z,100.00
2023-02-11T19:25:33.116Z,100.00
2023-02-11T19:28:00.687Z,100.00
2023-02-11T19:30:28.169Z,100.00
2023-02-11T19:32:57.260Z,100.00
2023-02-11T19:35:24.709Z,100.00
2023-02-11T19:37:51.630Z,100.00
2023-02-11T19:40:19.360Z,100.00
2023-02-11T19:42:46.170Z,100.00
2023-02-11T19:45:13.167Z,100.00
2023-02-11T19:47:39.992Z,100.00
2023-02-11T19:50:07.337Z,100.00
2023-02-11T19:52:34.243Z,100.00
2023-02-11T19:55:01.076Z,100.00
2023-02-11T19:57:27.852Z,100.00
2023-02-11T19:59:55.139Z,100.00
2023-02-11T20:02:21.989Z,100.00
2023-02-11T20:04:48.867Z,100.00
2023-02-11T20:07:15.762Z,100.00
2023-02-11T20:09:42.761Z,100.00
2023-02-11T20:12:09.842Z,100.00
2023-02-11T20:14:36.701Z,100.00
2023-02-11T20:17:03.637Z,100.00
2023-02-11T20:19:30.849Z,100.00
2023-02-11T20:21:57.763Z,100.00
2023-02-11T20:24:24.939Z,100.00
2023-02-11T20:26:55.639Z,100.00
2023-02-11T20:29:23.469Z,100.00
2023-02-11T20:31:50.623Z,100.00
2023-02-11T20:34:18.135Z,100.00
2023-02-11T20:36:51.985Z,100.00
2023-02-11T20:39:21.912Z,100.00
2023-02-11T20:41:49.020Z,100.00
2023-02-11T20:44:16.016Z,100.00
2023-02-11T20:46:43.747Z,100.00
2023-02-11T20:49:11.692Z,100.00
2023-02-11T20:51:39.267Z,100.00
2023-02-11T20:54:08.935Z,100.00
2023-02-11T20:56:36.922Z,100.00
2023-02-11T20:59:04.315Z,100.00
2023-02-11T21:01:33.066Z,100.00
2023-02-11T21:04:07.432Z,100.00
2023-02-11T21:06:38.716Z,100.00
2023-02-11T21:14:34.384Z,100.00
2023-02-11T21:17:01.166Z,100.00
2023-02-11T21:19:28.033Z,100.00
2023-02-11T21:21:55.482Z,100.00
2023-02-11T21:24:22.474Z,100.00
2023-02-11T21:26:49.289Z,100.00
2023-02-11T21:29:16.177Z,100.00
2023-02-11T21:31:43.353Z,100.00
2023-02-11T21:34:10.218Z,100.00
2023-02-11T21:36:37.073Z,100.00
2023-02-11T21:39:04.419Z,100.00
2023-02-11T21:41:31.268Z,100.00
2023-02-11T21:43:58.110Z,100.00
2023-02-11T21:46:25.018Z,100.00
2023-02-11T21:48:52.343Z,100.00
2023-02-11T21:51:20.288Z,100.00
2023-02-11T21:53:47.296Z,100.00
2023-02-11T21:56:17.546Z,100.00
2023-02-11T21:58:45.182Z,100.00
2023-02-11T22:01:12.113Z,100.00
2023-02-11T22:03:39.185Z,100.00
2023-02-11T22:06:07.165Z,100.00
2023-02-11T22:08:34.069Z,100.00
2023-02-11T22:11:08.313Z,100.00
2023-02-11T22:13:35.181Z,100.00
2023-02-11T22:16:02.606Z,100.00
2023-02-11T22:18:30.793Z,100.00
2023-02-11T22:20:58.802Z,100.00
2023-02-11T22:23:25.651Z,100.00
2023-02-11T22:25:52.823Z,100.00
2023-02-11T22:28:20.221Z,100.00
2023-02-11T22:30:47.052Z,100.00
2023-02-11T22:33:13.818Z,100.00
2023-02-11T22:35:40.546Z,100.00
2023-02-11T22:38:07.266Z,100.00
2023-02-11T22:40:34.017Z,100.00
2023-02-11T22:43:00.878Z,100.00
2023-02-11T22:45:33.869Z,100.00
2023-02-11T22:48:00.721Z,100.00
2023-02-11T22:50:27.577Z,100.00
2023-02-11T22:52:54.324Z,100.00
2023-02-11T22:55:21.078Z,100.00
2023-02-11T22:57:47.854Z,100.00
2023-02-11T23:00:14.928Z,100.00
2023-02-11T23:02:41.750Z,100.00
2023-02-11T23:05:08.822Z,100.00
2023-02-11T23:07:35.610Z,100.00
2023-02-11T23:10:02.468Z,100.00
2023-02-11T23:12:29.661Z,100.00
2023-02-11T23:14:56.386Z,100.00
2023-02-11T23:17:24.626Z,100.00
2023-02-11T23:19:51.559Z,100.00
2023-02-11T23:22:18.280Z,100.00
2023-02-11T23:24:45.105Z,100.00
2023-02-11T23:27:11.900Z,100.00
2023-02-11T23:29:38.658Z,100.00
2023-02-11T23:32:05.561Z,100.00
2023-02-11T23:34:32.579Z,100.00
2023-02-11T23:36:59.776Z,100.00
2023-02-11T23:39:27.687Z,100.00
2023-02-11T23:41:59.112Z,100.00
2023-02-11T23:44:26.603Z,100.00
2023-02-11T23:46:53.527Z,100.00
2023-02-11T23:49:20.310Z,100.00
2023-02-11T23:51:47.068Z,100.00
2023-02-11T23:54:14.265Z,100.00
2023-02-11T23:56:42.570Z,100.00
2023-02-11T23:59:09.336Z,100.00
